Time;durP1;ratioP1;P1;durP2;ratioP2;P2;SDS_P1;SDS_P2;PMS_P1;PMS_P2;Temp;Humidity;BMP_temperature;BMP_pressure;BME280_temperature;BME280_humidity;BME280_pressure;Samples;Min_cycle;Max_cycle;Signal;HPM_P1;HPM_P2
2022/04/20 00:01:18;;;;;;;5.03;3.45;;;7.20;99.90;;;;;;4954189;28;20046;-67
2022/04/20 00:03:44;;;;;;;5.88;3.67;;;7.20;99.90;;;;;;4946464;28;20583;-67
2022/04/20 00:06:10;;;;;;;11.50;3.30;;;7.10;99.90;;;;;;4945701;28;20540;-67
2022/04/20 00:08:36;;;;;;;5.45;3.20;;;7.10;99.90;;;;;;4968451;28;20058;-67
2022/04/20 00:11:02;;;;;;;5.00;3.42;;;7.10;99.90;;;;;;4955712;28;20137;-67
2022/04/20 00:13:28;;;;;;;7.93;3.38;;;7.10;99.90;;;;;;4944919;28;20043;-67
2022/04/20 00:15:54;;;;;;;4.55;3.53;;;7.00;99.90;;;;;;4965010;28;20101;-67
2022/04/20 00:18:20;;;;;;;6.88;3.88;;;7.00;99.90;;;;;;4934080;28;20514;-67
2022/04/20 00:20:46;;;;;;;5.07;3.55;;;7.00;99.90;;;;;;4952087;28;20121;-67
2022/04/20 00:23:12;;;;;;;5.45;3.60;;;6.90;99.90;;;;;;4962203;28;20042;-67
2022/04/20 00:25:37;;;;;;;5.43;3.42;;;6.90;99.90;;;;;;4932341;28;20480;-68
2022/04/20 00:28:04;;;;;;;5.93;3.50;;;6.90;99.90;;;;;;4931198;28;20081;-68
2022/04/20 00:30:29;;;;;;;5.28;3.65;;;6.90;99.90;;;;;;4949778;28;20468;-67
2022/04/20 00:32:55;;;;;;;4.20;3.40;;;6.80;99.90;;;;;;4949625;28;20050;-67
2022/04/20 00:35:21;;;;;;;6.57;3.83;;;6.80;99.90;;;;;;4962632;28;20550;-67
2022/04/20 00:37:48;;;;;;;5.50;3.83;;;6.80;99.90;;;;;;4956959;28;20505;-67
2022/04/20 00:40:14;;;;;;;4.40;3.50;;;6.80;99.90;;;;;;4971150;28;20078;-67
2022/04/20 00:42:41;;;;;;;5.90;3.72;;;6.80;99.90;;;;;;4959136;28;20046;-67
2022/04/20 00:45:09;;;;;;;8.15;3.70;;;6.80;99.90;;;;;;4950932;28;20112;-67
2022/04/20 00:47:42;;;;;;;5.32;3.63;;;6.80;99.90;;;;;;4942575;28;20053;-67
2022/04/20 00:50:10;;;;;;;7.32;3.90;;;6.80;99.90;;;;;;4938011;28;20769;-67
2022/04/20 00:52:36;;;;;;;4.72;3.30;;;6.70;99.90;;;;;;4941279;28;20181;-67
2022/04/20 00:55:04;;;;;;;6.47;3.58;;;6.70;99.90;;;;;;4957429;28;20518;-67
2022/04/20 00:57:30;;;;;;;6.07;3.95;;;6.70;99.90;;;;;;4943450;28;25497;-67
2022/04/20 00:59:57;;;;;;;5.80;3.83;;;6.70;99.90;;;;;;4941354;28;20404;-67
2022/04/20 01:02:23;;;;;;;8.50;4.28;;;6.70;99.90;;;;;;4953565;28;20050;-67
2022/04/20 01:04:49;;;;;;;5.70;3.60;;;6.70;99.90;;;;;;4950443;28;20058;-67
2022/04/20 01:07:16;;;;;;;7.25;4.40;;;6.70;99.90;;;;;;4934956;28;20121;-67
2022/04/20 01:09:43;;;;;;;7.25;4.55;;;6.70;99.90;;;;;;4955803;28;23564;-68
2022/04/20 01:12:10;;;;;;;6.63;3.88;;;6.70;99.90;;;;;;4970164;28;20101;-67
2022/04/20 01:14:36;;;;;;;4.97;3.80;;;6.70;99.90;;;;;;4965366;28;20050;-66
2022/04/20 01:17:03;;;;;;;5.53;3.80;;;6.70;99.90;;;;;;4939515;28;20060;-66
2022/04/20 01:19:38;;;;;;;6.80;4.18;;;6.70;99.90;;;;;;4955404;28;20066;-66
2022/04/20 01:22:05;;;;;;;5.45;3.95;;;6.60;99.90;;;;;;4974317;28;20548;-67
2022/04/20 01:24:32;;;;;;;9.20;4.18;;;6.60;99.90;;;;;;4960998;28;20052;-66
2022/04/20 01:26:58;;;;;;;7.43;4.57;;;6.60;99.90;;;;;;4969057;28;20108;-67
2022/04/20 01:29:26;;;;;;;5.75;4.07;;;6.60;99.90;;;;;;4946568;28;20046;-67
2022/04/20 01:31:52;;;;;;;6.32;4.13;;;6.60;99.90;;;;;;4948898;28;20050;-67
2022/04/20 01:34:18;;;;;;;7.38;4.47;;;6.60;99.90;;;;;;4949488;28;20061;-67
2022/04/20 01:36:44;;;;;;;5.47;4.10;;;6.50;99.90;;;;;;4948536;28;20144;-67
2022/04/20 01:39:11;;;;;;;6.65;4.30;;;6.50;99.90;;;;;;4953908;28;20145;-67
2022/04/20 01:41:37;;;;;;;6.65;4.32;;;6.50;99.90;;;;;;4944618;28;20065;-67
2022/04/20 01:44:03;;;;;;;6.03;4.50;;;6.50;99.90;;;;;;4944703;28;20061;-67
2022/04/20 01:46:29;;;;;;;6.18;4.13;;;6.50;99.90;;;;;;4943380;28;20141;-68
2022/04/20 01:48:55;;;;;;;6.25;4.30;;;6.50;99.90;;;;;;4962636;28;20080;-67
2022/04/20 01:54:06;;;;;;;9.27;4.20;;;6.40;99.90;;;;;;4921812;28;20050;-67
2022/04/20 01:56:31;;;;;;;8.27;4.40;;;6.40;99.90;;;;;;4960201;28;20437;-67
2022/04/20 01:58:57;;;;;;;6.25;4.40;;;6.40;99.90;;;;;;4958139;28;20046;-67
2022/04/20 02:04:07;;;;;;;7.40;4.20;;;6.30;99.90;;;;;;4966573;28;20147;-67
2022/04/20 02:06:33;;;;;;;5.88;4.18;;;6.30;99.90;;;;;;4964717;28;20153;-67
2022/04/20 02:08:59;;;;;;;9.50;4.50;;;6.30;99.90;;;;;;4969035;28;20117;-67
2022/04/20 02:11:25;;;;;;;8.05;4.25;;;6.30;99.90;;;;;;4964026;28;20049;-67
2022/04/20 02:13:51;;;;;;;6.25;4.80;;;6.20;99.90;;;;;;4963706;28;20201;-68
2022/04/20 02:16:17;;;;;;;5.28;3.90;;;6.20;99.90;;;;;;4963828;28;20056;-67
2022/04/20 02:18:43;;;;;;;6.80;4.60;;;6.20;99.90;;;;;;4962907;28;20052;-67
2022/04/20 02:21:09;;;;;;;8.32;4.43;;;6.20;99.90;;;;;;4941771;28;20058;-67
2022/04/20 02:23:34;;;;;;;6.90;4.72;;;6.20;99.90;;;;;;4981326;28;20054;-67
2022/04/20 02:26:00;;;;;;;7.43;4.78;;;6.30;99.90;;;;;;4948348;28;20498;-67
2022/04/20 02:28:26;;;;;;;6.57;3.97;;;6.20;99.90;;;;;;4915582;28;20121;-67
2022/04/20 02:30:52;;;;;;;6.95;4.10;;;6.20;99.90;;;;;;4936122;28;20057;-67
2022/04/20 02:33:18;;;;;;;6.43;4.47;;;6.20;99.90;;;;;;4942833;28;20094;-67
2022/04/20 02:35:44;;;;;;;6.28;4.60;;;6.30;99.90;;;;;;4919612;28;20061;-67
2022/04/20 02:38:15;;;;;;;11.40;4.72;;;6.30;99.90;;;;;;4936831;28;20062;-67
2022/04/20 02:40:42;;;;;;;9.32;4.75;;;6.30;99.90;;;;;;4952621;28;20069;-67
2022/04/20 02:43:08;;;;;;;8.20;4.80;;;6.30;99.90;;;;;;4953630;28;20043;-67
2022/04/20 02:45:34;;;;;;;6.00;4.47;;;6.30;99.90;;;;;;4956750;28;20073;-66
2022/04/20 02:48:00;;;;;;;7.90;4.65;;;6.30;99.90;;;;;;4945506;28;20047;-67
2022/04/20 02:50:30;;;;;;;7.28;4.47;;;6.30;99.90;;;;;;4946810;28;20053;-67
2022/04/20 02:52:57;;;;;;;6.93;4.80;;;6.40;99.90;;;;;;4947134;28;20051;-67
2022/04/20 02:55:23;;;;;;;6.68;4.40;;;6.40;99.90;;;;;;4953128;28;20046;-67
2022/04/20 02:57:50;;;;;;;5.70;4.07;;;6.40;99.90;;;;;;4931655;28;20105;-67
2022/04/20 03:00:16;;;;;;;6.72;4.45;;;6.40;99.90;;;;;;4929781;28;20162;-66
2022/04/20 03:02:43;;;;;;;6.55;4.57;;;6.40;99.90;;;;;;4948141;28;20050;-67
2022/04/20 03:05:09;;;;;;;7.03;5.03;;;6.40;99.90;;;;;;4948093;28;20054;-67
2022/04/20 03:07:35;;;;;;;6.72;4.57;;;6.40;99.90;;;;;;4940484;28;20081;-67
2022/04/20 03:10:01;;;;;;;6.68;4.60;;;6.40;99.90;;;;;;4949824;28;20042;-67
2022/04/20 03:12:27;;;;;;;5.57;4.63;;;6.40;99.90;;;;;;4946242;28;20065;-66
2022/04/20 03:14:54;;;;;;;6.93;4.60;;;6.30;99.90;;;;;;4948931;28;20046;-67
2022/04/20 03:17:24;;;;;;;8.20;5.15;;;6.30;99.90;;;;;;4947603;28;20534;-67
2022/04/20 03:19:51;;;;;;;7.03;5.18;;;6.30;99.90;;;;;;4931214;28;20615;-67
2022/04/20 03:22:17;;;;;;;6.88;4.55;;;6.20;99.90;;;;;;4939908;28;20058;-66
2022/04/20 03:24:44;;;;;;;8.27;4.88;;;6.20;99.90;;;;;;4931923;28;20079;-67
2022/04/20 03:27:10;;;;;;;9.35;4.93;;;6.20;99.90;;;;;;4946308;28;20063;-67
2022/04/20 03:29:35;;;;;;;6.45;5.35;;;6.10;99.90;;;;;;4958376;28;21054;-66
2022/04/20 03:32:09;;;;;;;6.95;5.20;;;6.00;99.90;;;;;;4959730;28;20125;-67
2022/04/20 03:34:36;;;;;;;7.05;5.20;;;6.00;99.90;;;;;;4971108;28;20069;-67
2022/04/20 03:37:02;;;;;;;8.75;5.22;;;5.90;99.90;;;;;;4960060;28;20065;-67
2022/04/20 03:39:28;;;;;;;7.32;5.68;;;5.80;99.90;;;;;;4967859;28;20050;-67
2022/04/20 03:41:54;;;;;;;7.10;5.30;;;5.80;99.90;;;;;;4981694;28;20057;-67
2022/04/20 03:44:19;;;;;;;8.07;5.13;;;5.80;99.90;;;;;;4973872;28;20054;-66
2022/04/20 03:46:45;;;;;;;14.25;5.57;;;5.70;99.90;;;;;;4937647;28;20054;-66
2022/04/20 03:49:11;;;;;;;6.43;5.07;;;5.70;99.90;;;;;;4976886;28;20532;-67
2022/04/20 03:51:37;;;;;;;7.35;5.53;;;5.60;99.90;;;;;;4972115;28;20053;-66
2022/04/20 03:54:03;;;;;;;8.77;5.57;;;5.60;99.90;;;;;;4982556;28;20497;-67
2022/04/20 03:57:03;;;;;;;6.97;5.57;;;5.60;99.90;;;;;;4957496;28;20065;-70
2022/04/20 03:59:18;;;;;;;8.57;5.07;;;5.60;99.90;;;;;;4957859;28;20718;-67
2022/04/20 04:01:44;;;;;;;9.40;5.28;;;5.50;99.90;;;;;;4950246;28;20046;-69
2022/04/20 04:04:10;;;;;;;10.85;4.63;;;5.50;99.90;;;;;;4971506;28;20042;-70
2022/04/20 04:06:35;;;;;;;7.72;4.82;;;5.50;99.90;;;;;;4946457;28;20485;-69
2022/04/20 04:09:01;;;;;;;7.13;5.13;;;5.50;99.90;;;;;;4929157;28;20050;-69
2022/04/20 04:11:27;;;;;;;7.15;5.03;;;5.40;99.90;;;;;;4965972;28;20046;-69
2022/04/20 04:13:53;;;;;;;8.50;5.28;;;5.40;99.90;;;;;;4969221;28;20084;-66
2022/04/20 04:16:19;;;;;;;7.65;4.97;;;5.40;99.90;;;;;;4956362;28;20054;-67
2022/04/20 04:18:45;;;;;;;7.13;5.07;;;5.40;99.90;;;;;;4965305;28;20559;-66
2022/04/20 04:21:11;;;;;;;6.03;4.75;;;5.40;99.90;;;;;;4968273;28;20536;-67
2022/04/20 04:23:37;;;;;;;6.03;4.70;;;5.40;99.90;;;;;;4956787;28;20050;-67
2022/04/20 04:26:02;;;;;;;8.52;5.15;;;5.30;99.90;;;;;;4965143;28;20081;-67
2022/04/20 04:28:29;;;;;;;5.20;4.68;;;5.30;99.90;;;;;;4973287;28;20082;-67
2022/04/20 04:30:55;;;;;;;7.30;5.35;;;5.30;99.90;;;;;;4938087;28;20486;-67
2022/04/20 04:33:20;;;;;;;8.48;5.45;;;5.30;99.90;;;;;;4940111;28;20057;-67
2022/04/20 04:35:46;;;;;;;9.30;4.85;;;5.30;99.90;;;;;;4981312;28;20058;-66
2022/04/20 04:38:14;;;;;;;6.13;4.85;;;5.30;99.90;;;;;;4960237;28;20062;-66
2022/04/20 04:40:41;;;;;;;5.85;4.78;;;5.30;99.90;;;;;;4973741;28;20081;-67
2022/04/20 04:43:07;;;;;;;6.53;5.15;;;5.30;99.90;;;;;;4974828;28;20513;-66
2022/04/20 04:51:01;;;;;;;6.80;4.70;;;5.30;99.90;;;;;;4961252;28;20114;-68
2022/04/20 04:53:27;;;;;;;9.60;5.20;;;5.30;99.90;;;;;;4965184;28;20049;-68
2022/04/20 04:55:53;;;;;;;8.27;5.20;;;5.30;99.90;;;;;;4955044;28;20047;-67
2022/04/20 04:58:18;;;;;;;6.90;4.63;;;5.30;99.90;;;;;;4931839;28;20480;-67
2022/04/20 05:00:44;;;;;;;14.30;5.03;;;5.30;99.90;;;;;;4949218;28;20062;-67
2022/04/20 05:03:10;;;;;;;6.65;5.03;;;5.30;99.90;;;;;;4957470;28;20046;-67
2022/04/20 05:05:37;;;;;;;8.50;4.57;;;5.30;99.90;;;;;;4972526;28;20085;-67
2022/04/20 05:08:03;;;;;;;7.38;5.25;;;5.30;99.90;;;;;;4951200;28;20122;-67
2022/04/20 05:10:29;;;;;;;6.43;5.15;;;5.30;99.90;;;;;;4969608;28;20054;-67
2022/04/20 05:12:54;;;;;;;9.38;4.95;;;5.30;99.90;;;;;;4947962;28;20057;-68
2022/04/20 05:15:20;;;;;;;8.32;5.15;;;5.40;99.90;;;;;;4966491;28;20129;-68
2022/04/20 05:17:46;;;;;;;8.02;4.97;;;5.30;99.90;;;;;;4968181;28;20452;-68
2022/04/20 05:20:12;;;;;;;9.20;5.30;;;5.40;99.90;;;;;;4947892;28;20489;-68
2022/04/20 05:22:38;;;;;;;10.40;5.00;;;5.40;99.90;;;;;;4966656;28;20370;-68
2022/04/20 05:25:04;;;;;;;10.82;5.65;;;5.30;99.90;;;;;;4953226;28;20057;-68
2022/04/20 05:27:30;;;;;;;6.22;4.80;;;5.40;99.90;;;;;;4969055;28;20058;-67
2022/04/20 05:29:56;;;;;;;7.82;4.72;;;5.40;99.90;;;;;;4949961;28;20536;-68
2022/04/20 05:32:22;;;;;;;8.43;5.07;;;5.40;99.90;;;;;;4941885;28;20053;-67
2022/04/20 05:34:48;;;;;;;13.32;5.03;;;5.40;99.90;;;;;;4956936;28;20050;-69
2022/04/20 05:42:43;;;;;;;7.80;4.97;;;5.50;99.90;;;;;;4952893;28;20053;-68
2022/04/20 05:45:10;;;;;;;8.48;5.15;;;5.50;99.90;;;;;;4953953;28;20054;-67
2022/04/20 05:47:38;;;;;;;9.30;5.55;;;5.60;99.90;;;;;;4962524;28;20046;-68
2022/04/20 05:50:05;;;;;;;8.15;4.82;;;5.60;99.90;;;;;;4945407;28;20043;-67
2022/04/20 05:52:31;;;;;;;8.13;5.38;;;5.60;99.90;;;;;;4958153;28;20041;-67
2022/04/20 05:54:57;;;;;;;6.20;4.63;;;5.70;99.90;;;;;;4965578;28;20472;-67
2022/04/20 05:57:24;;;;;;;8.48;5.32;;;5.60;99.90;;;;;;4947033;28;20129;-67
2022/04/20 05:59:50;;;;;;;10.02;4.90;;;5.70;99.90;;;;;;4965854;28;20078;-67
2022/04/20 06:02:16;;;;;;;8.63;5.22;;;5.80;99.90;;;;;;4943560;28;20062;-67
2022/04/20 06:04:42;;;;;;;6.70;5.10;;;5.80;99.90;;;;;;4966302;28;20050;-68
2022/04/20 06:07:07;;;;;;;7.53;5.20;;;5.90;99.90;;;;;;4966015;28;20421;-68
2022/04/20 06:09:33;;;;;;;9.82;5.38;;;5.90;99.90;;;;;;4948636;28;20588;-67
2022/04/20 06:11:59;;;;;;;7.07;5.28;;;5.90;99.90;;;;;;4960366;28;20050;-68
2022/04/20 06:14:25;;;;;;;7.75;5.32;;;6.00;99.90;;;;;;4954498;28;20046;-67
2022/04/20 06:16:51;;;;;;;8.73;5.65;;;6.10;99.90;;;;;;4949981;28;20066;-67
2022/04/20 06:19:17;;;;;;;7.05;5.30;;;6.20;99.90;;;;;;4971532;28;20082;-66
2022/04/20 06:21:43;;;;;;;8.75;5.65;;;6.20;99.90;;;;;;4975491;28;20050;-67
2022/04/20 06:24:09;;;;;;;8.68;5.30;;;6.30;99.90;;;;;;4967838;28;20088;-67
2022/04/20 06:26:35;;;;;;;9.85;5.88;;;6.40;99.90;;;;;;4977817;28;20544;-68
2022/04/20 06:29:00;;;;;;;7.22;5.60;;;6.50;99.90;;;;;;4947832;28;20054;-68
2022/04/20 06:31:26;;;;;;;8.15;5.82;;;6.60;99.90;;;;;;4970724;28;20116;-67
2022/04/20 06:33:57;;;;;;;8.75;5.75;;;6.60;99.90;;;;;;4961468;28;20049;-67
2022/04/20 06:36:25;;;;;;;12.23;5.63;;;6.70;99.90;;;;;;4966178;28;20050;-67
2022/04/20 06:38:51;;;;;;;10.00;5.85;;;6.80;99.90;;;;;;4979945;28;20064;-67
2022/04/20 06:41:17;;;;;;;15.02;6.00;;;6.90;99.90;;;;;;4937336;28;20050;-67
2022/04/20 06:43:43;;;;;;;13.90;6.65;;;7.00;99.90;;;;;;4959125;28;20050;-67
2022/04/20 06:46:09;;;;;;;22.13;6.50;;;7.10;99.90;;;;;;4959217;28;20043;-67
2022/04/20 06:48:35;;;;;;;12.18;5.70;;;7.20;99.90;;;;;;4964006;28;20077;-67
2022/04/20 06:51:02;;;;;;;8.57;6.15;;;7.40;99.90;;;;;;4969519;28;20056;-67
2022/04/20 06:59:13;;;;;;;9.07;5.65;;;7.70;99.90;;;;;;4904332;29;20055;-67
2022/04/20 07:01:39;;;;;;;11.23;6.20;;;7.80;99.90;;;;;;4954062;28;20116;-68
2022/04/20 07:04:07;;;;;;;8.32;5.72;;;7.90;99.90;;;;;;4948386;28;20733;-68
2022/04/20 07:06:33;;;;;;;6.78;5.15;;;8.10;99.90;;;;;;4971004;28;20734;-68
2022/04/20 07:08:59;;;;;;;8.35;5.38;;;8.20;99.90;;;;;;4954159;28;20054;-67
2022/04/20 07:11:28;;;;;;;7.45;5.30;;;8.30;99.90;;;;;;4952571;28;20470;-67
2022/04/20 07:13:57;;;;;;;8.25;5.45;;;8.40;99.90;;;;;;4951134;28;20049;-67
2022/04/20 07:16:23;;;;;;;9.48;5.40;;;8.50;99.90;;;;;;4969855;28;20054;-67
2022/04/20 07:18:49;;;;;;;5.90;5.18;;;8.70;99.90;;;;;;4966343;28;20061;-67
2022/04/20 07:21:15;;;;;;;8.63;5.22;;;8.80;99.90;;;;;;4948672;28;20054;-67
2022/04/20 07:23:42;;;;;;;7.40;4.97;;;8.90;99.90;;;;;;4957240;28;20058;-67
2022/04/20 07:26:08;;;;;;;7.57;4.00;;;9.00;99.90;;;;;;4956793;28;20058;-67
2022/04/20 07:28:34;;;;;;;14.90;4.93;;;9.10;99.90;;;;;;4952287;28;20062;-67
2022/04/20 07:31:02;;;;;;;14.23;4.30;;;9.30;99.90;;;;;;4954485;28;20047;-67
2022/04/20 07:33:28;;;;;;;7.10;4.30;;;9.40;99.90;;;;;;4961249;28;20047;-67
2022/04/20 07:35:54;;;;;;;6.68;4.40;;;9.50;99.90;;;;;;4949225;28;20045;-67
2022/04/20 07:38:24;;;;;;;6.68;4.05;;;9.70;99.90;;;;;;4936395;28;20058;-67
2022/04/20 07:40:50;;;;;;;5.60;4.28;;;9.80;99.90;;;;;;4951953;28;20137;-67
2022/04/20 07:43:15;;;;;;;8.20;4.57;;;10.00;99.60;;;;;;4949319;28;20096;-67
2022/04/20 07:45:41;;;;;;;4.28;3.85;;;10.10;99.00;;;;;;4933826;28;20046;-67
2022/04/20 07:48:07;;;;;;;7.13;3.72;;;10.20;97.80;;;;;;4939620;28;20094;-68
2022/04/20 07:50:33;;;;;;;7.97;4.00;;;10.30;97.10;;;;;;4944962;28;20085;-67
2022/04/20 07:53:00;;;;;;;6.65;3.80;;;10.40;96.40;;;;;;4963730;28;20082;-67
2022/04/20 07:55:29;;;;;;;4.78;3.42;;;10.50;96.00;;;;;;4962732;28;20054;-66
2022/04/20 07:57:58;;;;;;;5.03;4.07;;;10.60;95.70;;;;;;4944540;28;20145;-67
2022/04/20 08:00:24;;;;;;;8.10;3.63;;;10.80;95.10;;;;;;4966043;28;20050;-67
2022/04/20 08:02:50;;;;;;;3.83;3.42;;;10.90;94.30;;;;;;4946864;28;20054;-67
2022/04/20 08:05:18;;;;;;;6.75;3.70;;;11.00;93.20;;;;;;4960965;28;20069;-67
2022/04/20 08:07:44;;;;;;;4.18;3.15;;;11.10;91.90;;;;;;4980870;28;20053;-67
2022/04/20 08:10:12;;;;;;;5.95;2.85;;;11.20;91.10;;;;;;4960164;28;20962;-67
2022/04/20 08:12:39;;;;;;;8.98;2.95;;;11.30;89.10;;;;;;4946337;28;20077;-67
2022/04/20 08:15:07;;;;;;;3.33;2.47;;;11.40;86.50;;;;;;4966932;28;20047;-67
2022/04/20 08:17:33;;;;;;;6.05;2.78;;;11.60;83.30;;;;;;4963789;28;20072;-67
2022/04/20 08:19:59;;;;;;;4.43;2.75;;;11.70;81.80;;;;;;4932662;28;20042;-67
2022/04/20 08:22:26;;;;;;;3.72;2.50;;;11.80;79.90;;;;;;4960173;28;20057;-67
2022/04/20 08:24:53;;;;;;;3.55;2.60;;;11.90;77.30;;;;;;4952694;28;20137;-67
2022/04/20 08:27:22;;;;;;;3.78;2.40;;;12.00;76.60;;;;;;4968186;28;20481;-67
2022/04/20 08:29:49;;;;;;;3.40;2.35;;;12.10;73.60;;;;;;4959215;28;20540;-68
2022/04/20 08:32:18;;;;;;;3.35;2.40;;;12.20;73.40;;;;;;4955766;28;20043;-67
2022/04/20 08:34:45;;;;;;;3.97;2.38;;;12.20;71.00;;;;;;4950998;28;20054;-67
2022/04/20 08:37:11;;;;;;;4.57;2.20;;;12.30;68.90;;;;;;4957222;28;20065;-67
2022/04/20 08:39:39;;;;;;;2.85;2.10;;;12.30;68.40;;;;;;4964094;28;20081;-68
2022/04/20 08:42:07;;;;;;;3.47;2.30;;;12.40;68.10;;;;;;4958782;28;20525;-67
2022/04/20 08:44:36;;;;;;;4.18;2.13;;;12.50;68.10;;;;;;4952552;28;20065;-67
2022/04/20 08:47:02;;;;;;;3.85;2.30;;;12.70;67.80;;;;;;4951399;28;20526;-68
2022/04/20 08:49:29;;;;;;;4.95;2.22;;;12.80;66.20;;;;;;4962334;28;20501;-68
2022/04/20 08:54:39;;;;;;;3.92;2.20;;;12.90;64.00;;;;;;4949915;28;20065;-68
2022/04/20 08:57:15;;;;;;;5.32;2.00;;;13.00;62.10;;;;;;4963795;28;20495;-67
2022/04/20 08:59:43;;;;;;;6.97;1.90;;;13.10;62.00;;;;;;4963703;28;20051;-67
2022/04/20 09:02:13;;;;;;;4.78;1.80;;;13.20;61.70;;;;;;4966694;28;20062;-68
2022/04/20 09:04:39;;;;;;;6.38;2.05;;;13.30;60.20;;;;;;4949698;28;20047;-68
2022/04/20 09:07:07;;;;;;;2.42;1.98;;;13.40;59.70;;;;;;4944974;28;20138;-67
2022/04/20 09:09:34;;;;;;;3.15;1.90;;;13.50;58.70;;;;;;4962594;28;20042;-67
2022/04/20 09:12:00;;;;;;;2.90;2.03;;;13.60;59.10;;;;;;4962189;28;20187;-67
2022/04/20 09:14:28;;;;;;;2.00;1.80;;;13.60;59.20;;;;;;4951349;28;20047;-67
2022/04/20 09:16:55;;;;;;;3.08;1.88;;;13.70;59.60;;;;;;4953458;28;20101;-67
2022/04/20 09:19:25;;;;;;;3.25;2.00;;;13.90;58.60;;;;;;4959450;28;20081;-68
2022/04/20 09:21:55;;;;;;;2.92;1.95;;;14.00;57.60;;;;;;4960008;28;20046;-67
2022/04/20 09:24:21;;;;;;;3.90;2.15;;;14.00;57.30;;;;;;4927222;28;20560;-67
2022/04/20 09:26:57;;;;;;;3.85;1.58;;;14.10;56.80;;;;;;4963077;28;20136;-68
2022/04/20 09:29:23;;;;;;;1.67;1.50;;;14.20;55.90;;;;;;4951269;28;20046;-68
2022/04/20 09:31:51;;;;;;;2.67;1.80;;;14.20;55.90;;;;;;4950477;28;20449;-68
2022/04/20 09:34:35;;;;;;;3.03;1.80;;;14.30;55.50;;;;;;4972438;28;20052;-67
2022/04/20 09:37:14;;;;;;;2.85;1.70;;;14.50;55.20;;;;;;4967670;28;20077;-67
2022/04/20 09:39:47;;;;;;;3.15;2.30;;;14.60;55.10;;;;;;4966677;28;20455;-68
2022/04/20 09:42:14;;;;;;;2.08;1.80;;;14.70;54.60;;;;;;4967291;28;20049;-67
2022/04/20 09:44:53;;;;;;;3.35;1.77;;;14.70;54.30;;;;;;4938429;28;20406;-68
2022/04/20 09:50:11;;;;;;;4.38;1.95;;;14.90;54.20;;;;;;4926153;28;20049;-68
2022/04/20 09:52:42;;;;;;;2.47;1.65;;;15.00;54.70;;;;;;4951239;28;20050;-68
2022/04/20 09:55:11;;;;;;;1.80;1.55;;;15.10;54.60;;;;;;4966744;28;20420;-68
2022/04/20 09:57:37;;;;;;;2.55;1.92;;;15.20;54.20;;;;;;4973583;28;20451;-68
2022/04/20 10:00:10;;;;;;;9.38;1.80;;;15.20;54.30;;;;;;4940855;28;20255;-67
2022/04/20 10:02:46;;;;;;;2.80;1.80;;;15.30;53.60;;;;;;4970003;28;20050;-68
2022/04/20 10:05:13;;;;;;;4.15;1.67;;;15.40;52.80;;;;;;4949784;28;20046;-67
2022/04/20 10:07:39;;;;;;;2.70;1.50;;;15.50;52.80;;;;;;4970402;28;20038;-68
2022/04/20 10:10:06;;;;;;;6.00;1.70;;;15.60;52.60;;;;;;4944484;28;20046;-68
2022/04/20 10:12:35;;;;;;;2.92;1.80;;;15.70;52.80;;;;;;4963993;28;20575;-68
2022/04/20 10:17:59;;;;;;;6.15;1.73;;;15.90;52.00;;;;;;4918123;28;20177;-68
2022/04/20 10:20:27;;;;;;;3.13;2.10;;;15.90;52.30;;;;;;4968041;28;20046;-67
2022/04/20 10:22:54;;;;;;;3.40;1.70;;;16.00;52.10;;;;;;4941721;28;20075;-68
2022/04/20 10:25:21;;;;;;;2.67;1.80;;;16.20;52.50;;;;;;4985918;28;20387;-68
2022/04/20 10:28:36;;;;;;;2.30;1.60;;;16.30;52.10;;;;;;4980460;28;20789;-68
2022/04/20 10:31:11;;;;;;;2.33;1.55;;;16.30;52.50;;;;;;4951124;28;20118;-67
2022/04/20 10:33:40;;;;;;;2.00;1.80;;;16.50;52.40;;;;;;4973491;28;20472;-68
2022/04/20 10:36:12;;;;;;;1.55;1.27;;;16.60;50.70;;;;;;4992362;28;20514;-68
2022/04/20 10:38:39;;;;;;;2.13;1.42;;;16.60;50.40;;;;;;4941533;28;20054;-68
2022/04/20 10:41:13;;;;;;;4.22;1.50;;;16.60;50.30;;;;;;4975117;28;20050;-68
2022/04/20 10:43:42;;;;;;;3.67;1.42;;;16.70;50.00;;;;;;4971688;28;20100;-68
2022/04/20 10:46:11;;;;;;;1.80;1.52;;;16.80;50.00;;;;;;4960416;28;20054;-68
2022/04/20 10:49:01;;;;;;;2.28;1.60;;;16.90;49.60;;;;;;4992792;28;20120;-68
2022/04/20 10:51:30;;;;;;;1.67;1.45;;;16.90;49.00;;;;;;4975012;28;20121;-68
2022/04/20 10:54:26;;;;;;;3.15;1.30;;;17.00;49.30;;;;;;4958047;28;20054;-68
2022/04/20 10:57:01;;;;;;;5.90;1.67;;;17.10;48.80;;;;;;4971333;28;20050;-67
2022/04/20 10:59:30;;;;;;;1.40;1.30;;;17.20;49.50;;;;;;4976020;28;20420;-68
2022/04/20 11:02:02;;;;;;;4.28;1.40;;;17.30;49.80;;;;;;4957501;28;20425;-68
2022/04/20 11:04:48;;;;;;;3.30;1.40;;;17.40;49.20;;;;;;4965950;28;20053;-68
2022/04/20 11:07:26;;;;;;;1.95;1.38;;;17.50;49.10;;;;;;4975737;28;20057;-68
2022/04/20 11:10:21;;;;;;;3.75;1.48;;;17.50;48.80;;;;;;4970549;28;20050;-68
2022/04/20 11:21:04;;;;;;;1.40;1.30;;;17.70;49.00;;;;;;4967156;28;20077;-68
2022/04/20 11:23:52;;;;;;;1.35;1.15;;;17.80;49.00;;;;;;4967198;28;20561;-68
2022/04/20 11:26:27;;;;;;;2.13;1.00;;;17.80;48.90;;;;;;4971029;28;20050;-68
2022/04/20 11:28:55;;;;;;;3.00;1.10;;;17.90;49.00;;;;;;4957273;28;20076;-68
2022/04/20 11:31:21;;;;;;;3.60;1.15;;;18.00;49.00;;;;;;4958576;28;20492;-68
2022/04/20 11:33:47;;;;;;;6.38;1.20;;;18.20;49.40;;;;;;4975888;28;20069;-68
2022/04/20 11:36:16;;;;;;;3.00;1.40;;;18.40;48.50;;;;;;4968588;28;20132;-68
2022/04/20 11:38:48;;;;;;;1.65;1.13;;;18.40;48.60;;;;;;4963967;28;20046;-68
2022/04/20 11:41:15;;;;;;;6.00;1.15;;;18.60;48.20;;;;;;4926371;28;20050;-68
2022/04/20 11:43:41;;;;;;;1.58;1.10;;;18.70;48.10;;;;;;4960111;28;20571;-69
2022/04/20 11:46:08;;;;;;;4.28;1.08;;;18.70;47.30;;;;;;4974051;28;20073;-69
2022/04/20 11:48:38;;;;;;;3.90;1.20;;;18.80;47.90;;;;;;4978033;28;20046;-68
2022/04/20 11:51:08;;;;;;;1.23;1.05;;;18.90;48.00;;;;;;4973188;28;20052;-69
2022/04/20 11:53:40;;;;;;;2.05;1.10;;;18.90;46.80;;;;;;4977636;28;20538;-68
2022/04/20 11:56:12;;;;;;;2.03;1.30;;;19.00;47.60;;;;;;4970114;28;20061;-68
2022/04/20 11:58:38;;;;;;;4.90;1.42;;;19.10;47.80;;;;;;4955990;28;20049;-69
2022/04/20 12:01:05;;;;;;;1.00;0.90;;;19.20;47.60;;;;;;4954674;28;20046;-69
2022/04/20 12:03:33;;;;;;;1.08;0.98;;;19.30;47.50;;;;;;4972590;28;20073;-69
2022/04/20 12:06:01;;;;;;;5.63;0.98;;;19.40;46.70;;;;;;4983278;28;20042;-69
2022/04/20 12:08:27;;;;;;;1.20;1.00;;;19.40;46.30;;;;;;4978327;28;20046;-69
2022/04/20 12:10:53;;;;;;;3.92;1.15;;;19.40;46.70;;;;;;4980611;28;20412;-69
2022/04/20 12:13:29;;;;;;;2.28;1.20;;;19.50;47.00;;;;;;4969623;28;20046;-69
2022/04/20 12:16:01;;;;;;;3.00;1.30;;;19.60;46.80;;;;;;4971743;28;20811;-69
2022/04/20 12:18:29;;;;;;;7.85;1.30;;;19.60;46.40;;;;;;4956892;28;20053;-70
2022/04/20 12:20:56;;;;;;;2.97;1.10;;;19.60;46.10;;;;;;4968141;28;20858;-69
2022/04/20 12:23:22;;;;;;;3.42;1.00;;;19.60;46.70;;;;;;4975624;28;20096;-69
2022/04/20 12:25:54;;;;;;;3.47;1.40;;;19.70;46.70;;;;;;4954446;28;20546;-69
2022/04/20 12:31:08;;;;;;;4.32;1.30;;;19.70;46.70;;;;;;4972264;28;20046;-69
2022/04/20 12:33:34;;;;;;;3.90;1.27;;;19.60;47.30;;;;;;4969235;28;20045;-71
2022/04/20 12:36:07;;;;;;;5.28;1.48;;;19.70;47.50;;;;;;4955799;28;20056;-70
2022/04/20 12:38:48;;;;;;;3.45;1.23;;;19.80;47.20;;;;;;4972541;28;20483;-70
2022/04/20 12:41:45;;;;;;;1.33;1.00;;;19.90;47.40;;;;;;4954556;28;20141;-70
2022/04/20 12:44:36;;;;;;;7.22;1.30;;;20.10;47.80;;;;;;4977384;28;20060;-69
2022/04/20 12:47:22;;;;;;;1.40;1.05;;;20.20;48.00;;;;;;4969457;28;20077;-69
2022/04/20 12:49:49;;;;;;;2.05;1.33;;;20.40;47.10;;;;;;4967982;28;20495;-70
2022/04/20 12:52:17;;;;;;;2.78;1.33;;;20.40;46.40;;;;;;4953803;28;20042;-70
2022/04/20 12:54:59;;;;;;;2.92;1.33;;;20.40;46.00;;;;;;4972868;28;20413;-69
2022/04/20 13:03:07;;;;;;;1.60;1.40;;;20.40;46.30;;;;;;4965504;28;20081;-70
2022/04/20 13:05:37;;;;;;;13.82;2.60;;;20.60;46.70;;;;;;4980956;28;20052;-70
2022/04/20 13:08:05;;;;;;;3.95;2.97;;;20.70;47.60;;;;;;4953838;28;20128;-71
2022/04/20 13:10:35;;;;;;;6.70;2.92;;;20.70;49.00;;;;;;4969233;28;20093;-70
2022/04/20 13:13:01;;;;;;;4.13;2.95;;;20.70;50.10;;;;;;4955399;28;20073;-71
2022/04/20 13:15:29;;;;;;;11.30;2.90;;;20.70;50.30;;;;;;4967095;28;20084;-70
2022/04/20 13:17:57;;;;;;;10.13;3.35;;;20.60;50.30;;;;;;4954177;28;20050;-71
2022/04/20 13:20:28;;;;;;;5.65;3.40;;;20.50;50.50;;;;;;4968080;28;20057;-70
2022/04/20 13:22:54;;;;;;;9.38;3.13;;;20.40;50.70;;;;;;4966306;28;22663;-70
2022/04/20 13:28:05;;;;;;;6.93;3.22;;;20.20;51.50;;;;;;4953450;28;20472;-61
2022/04/20 13:30:36;;;;;;;5.75;2.97;;;20.10;51.70;;;;;;4967489;28;20626;-61
2022/04/20 13:33:07;;;;;;;7.28;3.53;;;20.10;52.20;;;;;;4987187;28;20057;-61
2022/04/20 13:35:34;;;;;;;5.57;3.10;;;20.20;51.90;;;;;;4983973;28;20042;-61
2022/04/20 13:38:01;;;;;;;7.32;2.97;;;20.20;51.40;;;;;;4960082;28;20053;-61
2022/04/20 13:40:27;;;;;;;4.93;3.30;;;20.30;51.60;;;;;;4969023;28;20085;-61
2022/04/20 13:42:56;;;;;;;5.50;3.35;;;20.30;51.80;;;;;;4986395;28;20050;-60
2022/04/20 13:45:22;;;;;;;4.82;3.17;;;20.40;51.60;;;;;;4984906;28;20046;-61
2022/04/20 13:47:49;;;;;;;6.78;2.97;;;20.50;51.60;;;;;;4989595;28;20046;-61